sensor_id;sensor_type;location;lat;lon;timestamp;temperature;humidity
46608;DHT22;32330;51.936;7.184;2023-03-26T00:00:38;8.20;99.90
46608;DHT22;32330;51.936;7.184;2023-03-26T00:03:08;8.10;99.90
46608;DHT22;32330;51.936;7.184;2023-03-26T00:05:36;8.10;99.90
46608;DHT22;32330;51.936;7.184;2023-03-26T00:08:03;8.10;99.90
46608;DHT22;32330;51.936;7.184;2023-03-26T00:10:35;8.10;99.90
46608;DHT22;32330;51.936;7.184;2023-03-26T00:13:02;8.20;99.90
46608;DHT22;32330;51.936;7.184;2023-03-26T00:15:30;8.10;99.90
46608;DHT22;32330;51.936;7.184;2023-03-26T00:17:57;8.10;99.90
46608;DHT22;32330;51.936;7.184;2023-03-26T00:20:25;8.10;99.90
46608;DHT22;32330;51.936;7.184;2023-03-26T00:22:53;8.10;99.90
46608;DHT22;32330;51.936;7.184;2023-03-26T00:25:20;8.10;99.90
46608;DHT22;32330;51.936;7.184;2023-03-26T00:27:49;8.10;99.90
46608;DHT22;32330;51.936;7.184;2023-03-26T00:30:17;8.10;99.90
46608;DHT22;32330;51.936;7.184;2023-03-26T00:32:44;8.10;99.90
46608;DHT22;32330;51.936;7.184;2023-03-26T00:35:11;8.10;99.90
46608;DHT22;32330;51.936;7.184;2023-03-26T00:37:38;8.10;99.90
46608;DHT22;32330;51.936;7.184;2023-03-26T00:40:09;8.10;99.90
46608;DHT22;32330;51.936;7.184;2023-03-26T00:42:37;8.20;99.90
46608;DHT22;32330;51.936;7.184;2023-03-26T00:45:06;8.20;99.90
46608;DHT22;32330;51.936;7.184;2023-03-26T00:47:34;8.20;99.90
46608;DHT22;32330;51.936;7.184;2023-03-26T00:50:01;8.20;99.90
46608;DHT22;32330;51.936;7.184;2023-03-26T00:52:29;8.20;99.90
46608;DHT22;32330;51.936;7.184;2023-03-26T00:54:56;8.20;99.90
46608;DHT22;32330;51.936;7.184;2023-03-26T00:57:23;8.20;99.90
46608;DHT22;32330;51.936;7.184;2023-03-26T00:59:54;8.20;99.90
46608;DHT22;32330;51.936;7.184;2023-03-26T01:02:23;8.20;99.90
46608;DHT22;32330;51.936;7.184;2023-03-26T01:04:56;8.20;99.90
46608;DHT22;32330;51.936;7.184;2023-03-26T01:07:27;8.20;99.90
46608;DHT22;32330;51.936;7.184;2023-03-26T01:09:57;8.20;99.90
46608;DHT22;32330;51.936;7.184;2023-03-26T01:12:26;8.20;99.90
46608;DHT22;32330;51.936;7.184;2023-03-26T01:14:57;8.20;99.90
46608;DHT22;32330;51.936;7.184;2023-03-26T01:17:27;8.30;99.90
46608;DHT22;32330;51.936;7.184;2023-03-26T01:20:04;8.20;99.90
46608;DHT22;32330;51.936;7.184;2023-03-26T01:22:40;8.20;99.90
46608;DHT22;32330;51.936;7.184;2023-03-26T01:25:09;8.30;99.90
46608;DHT22;32330;51.936;7.184;2023-03-26T01:27:38;8.30;99.90
46608;DHT22;32330;51.936;7.184;2023-03-26T01:30:12;8.30;99.90
46608;DHT22;32330;51.936;7.184;2023-03-26T01:32:51;8.30;99.90
46608;DHT22;32330;51.936;7.184;2023-03-26T01:35:35;8.30;99.90
46608;DHT22;32330;51.936;7.184;2023-03-26T01:38:12;8.30;99.90
46608;DHT22;32330;51.936;7.184;2023-03-26T01:40:45;8.30;99.90
46608;DHT22;32330;51.936;7.184;2023-03-26T01:43:23;8.30;99.90
46608;DHT22;32330;51.936;7.184;2023-03-26T01:45:52;8.40;99.90
46608;DHT22;32330;51.936;7.184;2023-03-26T01:48:19;8.30;99.90
46608;DHT22;32330;51.936;7.184;2023-03-26T01:50:46;8.30;99.90
46608;DHT22;32330;51.936;7.184;2023-03-26T01:53:18;8.30;99.90
46608;DHT22;32330;51.936;7.184;2023-03-26T01:55:53;8.40;99.90
46608;DHT22;32330;51.936;7.184;2023-03-26T01:58:28;8.40;99.90
46608;DHT22;32330;51.936;7.184;2023-03-26T02:01:05;8.40;99.90
46608;DHT22;32330;51.936;7.184;2023-03-26T02:03:42;8.40;99.90
46608;DHT22;32330;51.936;7.184;2023-03-26T02:06:16;8.40;99.90
46608;DHT22;32330;51.936;7.184;2023-03-26T02:08:49;8.40;99.90
46608;DHT22;32330;51.936;7.184;2023-03-26T02:11:19;8.40;99.90
46608;DHT22;32330;51.936;7.184;2023-03-26T02:13:46;8.40;99.90
46608;DHT22;32330;51.936;7.184;2023-03-26T02:16:15;8.40;99.90
46608;DHT22;32330;51.936;7.184;2023-03-26T02:18:42;8.40;99.90
46608;DHT22;32330;51.936;7.184;2023-03-26T02:21:12;8.40;99.90
46608;DHT22;32330;51.936;7.184;2023-03-26T02:23:42;8.50;99.90
46608;DHT22;32330;51.936;7.184;2023-03-26T02:26:13;8.50;99.90
46608;DHT22;32330;51.936;7.184;2023-03-26T02:29:05;8.40;99.90
46608;DHT22;32330;51.936;7.184;2023-03-26T02:31:33;8.40;99.90
46608;DHT22;32330;51.936;7.184;2023-03-26T02:34:01;8.40;99.90
46608;DHT22;32330;51.936;7.184;2023-03-26T02:36:30;8.50;99.90
46608;DHT22;32330;51.936;7.184;2023-03-26T02:39:00;8.40;99.90
46608;DHT22;32330;51.936;7.184;2023-03-26T02:41:31;8.40;99.90
46608;DHT22;32330;51.936;7.184;2023-03-26T02:44:09;8.40;99.90
46608;DHT22;32330;51.936;7.184;2023-03-26T02:47:08;8.50;99.90
46608;DHT22;32330;51.936;7.184;2023-03-26T02:49:54;8.40;99.90
46608;DHT22;32330;51.936;7.184;2023-03-26T02:52:40;8.40;99.90
46608;DHT22;32330;51.936;7.184;2023-03-26T02:55:08;8.40;99.90
46608;DHT22;32330;51.936;7.184;2023-03-26T02:57:36;8.40;99.90
46608;DHT22;32330;51.936;7.184;2023-03-26T03:00:12;8.50;99.90
46608;DHT22;32330;51.936;7.184;2023-03-26T03:02:44;8.50;99.90
46608;DHT22;32330;51.936;7.184;2023-03-26T03:05:27;8.50;99.90
46608;DHT22;32330;51.936;7.184;2023-03-26T03:08:26;8.40;99.90
46608;DHT22;32330;51.936;7.184;2023-03-26T03:11:29;8.40;99.90
46608;DHT22;32330;51.936;7.184;2023-03-26T03:13:56;8.50;99.90
46608;DHT22;32330;51.936;7.184;2023-03-26T03:16:29;8.40;99.90
46608;DHT22;32330;51.936;7.184;2023-03-26T03:19:02;8.50;99.90
46608;DHT22;32330;51.936;7.184;2023-03-26T03:21:38;8.50;99.90
46608;DHT22;32330;51.936;7.184;2023-03-26T03:24:07;8.50;99.90
46608;DHT22;32330;51.936;7.184;2023-03-26T03:26:39;8.50;99.90
46608;DHT22;32330;51.936;7.184;2023-03-26T03:29:21;8.40;99.90
46608;DHT22;32330;51.936;7.184;2023-03-26T03:31:50;8.40;99.90
46608;DHT22;32330;51.936;7.184;2023-03-26T03:34:34;8.40;99.90
46608;DHT22;32330;51.936;7.184;2023-03-26T03:37:03;8.40;99.90
46608;DHT22;32330;51.936;7.184;2023-03-26T03:39:38;8.40;99.90
46608;DHT22;32330;51.936;7.184;2023-03-26T03:42:07;8.40;99.90
46608;DHT22;32330;51.936;7.184;2023-03-26T03:44:34;8.40;99.90
46608;DHT22;32330;51.936;7.184;2023-03-26T03:47:07;8.40;99.90
46608;DHT22;32330;51.936;7.184;2023-03-26T03:49:35;8.40;99.90
46608;DHT22;32330;51.936;7.184;2023-03-26T03:52:02;8.40;99.90
46608;DHT22;32330;51.936;7.184;2023-03-26T03:54:36;8.40;99.90
46608;DHT22;32330;51.936;7.184;2023-03-26T03:57:17;8.40;99.90
46608;DHT22;32330;51.936;7.184;2023-03-26T03:59:58;8.40;99.90
46608;DHT22;32330;51.936;7.184;2023-03-26T04:02:31;8.40;99.90
46608;DHT22;32330;51.936;7.184;2023-03-26T04:05:03;8.40;99.90
46608;DHT22;32330;51.936;7.184;2023-03-26T04:07:31;8.40;99.90
46608;DHT22;32330;51.936;7.184;2023-03-26T04:10:06;8.50;99.90
46608;DHT22;32330;51.936;7.184;2023-03-26T04:12:52;8.50;99.90
46608;DHT22;32330;51.936;7.184;2023-03-26T04:15:30;8.40;99.90
46608;DHT22;32330;51.936;7.184;2023-03-26T04:17:58;8.50;99.90
46608;DHT22;32330;51.936;7.184;2023-03-26T04:20:26;8.50;99.90
46608;DHT22;32330;51.936;7.184;2023-03-26T04:22:53;8.50;99.90
46608;DHT22;32330;51.936;7.184;2023-03-26T04:25:24;8.40;99.90
46608;DHT22;32330;51.936;7.184;2023-03-26T04:28:06;8.40;99.90
46608;DHT22;32330;51.936;7.184;2023-03-26T04:30:53;8.40;99.90
46608;DHT22;32330;51.936;7.184;2023-03-26T04:33:33;8.40;99.90
46608;DHT22;32330;51.936;7.184;2023-03-26T04:36:01;8.50;99.90
46608;DHT22;32330;51.936;7.184;2023-03-26T04:38:35;8.40;99.90
46608;DHT22;32330;51.936;7.184;2023-03-26T04:41:04;8.40;99.90
46608;DHT22;32330;51.936;7.184;2023-03-26T04:43:52;8.40;99.90
46608;DHT22;32330;51.936;7.184;2023-03-26T04:46:38;8.50;99.90
46608;DHT22;32330;51.936;7.184;2023-03-26T04:49:24;8.40;99.90
46608;DHT22;32330;51.936;7.184;2023-03-26T04:51:51;8.50;99.90
46608;DHT22;32330;51.936;7.184;2023-03-26T04:54:42;8.50;99.90
46608;DHT22;32330;51.936;7.184;2023-03-26T04:57:16;8.50;99.90
46608;DHT22;32330;51.936;7.184;2023-03-26T04:59:49;8.50;99.90
46608;DHT22;32330;51.936;7.184;2023-03-26T05:02:16;8.50;99.90
46608;DHT22;32330;51.936;7.184;2023-03-26T05:04:51;8.40;99.90
46608;DHT22;32330;51.936;7.184;2023-03-26T05:07:21;8.50;99.90
46608;DHT22;32330;51.936;7.184;2023-03-26T05:09:54;8.50;99.90
46608;DHT22;32330;51.936;7.184;2023-03-26T05:12:31;8.50;99.90
46608;DHT22;32330;51.936;7.184;2023-03-26T05:15:04;8.40;99.90
46608;DHT22;32330;51.936;7.184;2023-03-26T05:17:54;8.50;99.90
46608;DHT22;32330;51.936;7.184;2023-03-26T05:20:29;8.50;99.90
46608;DHT22;32330;51.936;7.184;2023-03-26T05:22:57;8.50;99.90
46608;DHT22;32330;51.936;7.184;2023-03-26T05:25:29;8.50;99.90
46608;DHT22;32330;51.936;7.184;2023-03-26T05:27:58;8.50;99.90
46608;DHT22;32330;51.936;7.184;2023-03-26T05:30:31;8.50;99.90
46608;DHT22;32330;51.936;7.184;2023-03-26T05:33:00;8.50;99.90
46608;DHT22;32330;51.936;7.184;2023-03-26T05:35:36;8.50;99.90
46608;DHT22;32330;51.936;7.184;2023-03-26T05:38:03;8.50;99.90
46608;DHT22;32330;51.936;7.184;2023-03-26T05:40:31;8.50;99.90
46608;DHT22;32330;51.936;7.184;2023-03-26T05:43:00;8.40;99.90
46608;DHT22;32330;51.936;7.184;2023-03-26T05:45:37;8.40;99.90
46608;DHT22;32330;51.936;7.184;2023-03-26T05:48:21;8.40;99.90
46608;DHT22;32330;51.936;7.184;2023-03-26T05:50:50;8.40;99.90
46608;DHT22;32330;51.936;7.184;2023-03-26T05:53:19;8.40;99.90
46608;DHT22;32330;51.936;7.184;2023-03-26T05:56:06;8.50;99.90
46608;DHT22;32330;51.936;7.184;2023-03-26T05:58:52;8.50;99.90
46608;DHT22;32330;51.936;7.184;2023-03-26T06:01:48;8.40;99.90
46608;DHT22;32330;51.936;7.184;2023-03-26T06:04:34;8.50;99.90
46608;DHT22;32330;51.936;7.184;2023-03-26T06:07:30;8.50;99.90
46608;DHT22;32330;51.936;7.184;2023-03-26T06:10:16;8.50;99.90
46608;DHT22;32330;51.936;7.184;2023-03-26T06:12:44;8.50;99.90
46608;DHT22;32330;51.936;7.184;2023-03-26T06:15:11;8.50;99.90
46608;DHT22;32330;51.936;7.184;2023-03-26T06:17:56;8.60;99.90
46608;DHT22;32330;51.936;7.184;2023-03-26T06:20:45;8.60;99.90
46608;DHT22;32330;51.936;7.184;2023-03-26T06:23:40;8.60;99.90
46608;DHT22;32330;51.936;7.184;2023-03-26T06:26:13;8.60;99.90
46608;DHT22;32330;51.936;7.184;2023-03-26T06:28:47;8.70;99.90
46608;DHT22;32330;51.936;7.184;2023-03-26T06:31:32;8.60;99.90
46608;DHT22;32330;51.936;7.184;2023-03-26T06:34:21;8.70;99.90
46608;DHT22;32330;51.936;7.184;2023-03-26T06:36:48;8.70;99.90
46608;DHT22;32330;51.936;7.184;2023-03-26T06:39:19;8.70;99.90
46608;DHT22;32330;51.936;7.184;2023-03-26T06:42:04;8.70;99.90
46608;DHT22;32330;51.936;7.184;2023-03-26T06:44:57;8.70;99.90
46608;DHT22;32330;51.936;7.184;2023-03-26T06:47:53;8.80;99.90
46608;DHT22;32330;51.936;7.184;2023-03-26T06:50:45;8.80;99.90
46608;DHT22;32330;51.936;7.184;2023-03-26T06:53:25;8.80;99.90
46608;DHT22;32330;51.936;7.184;2023-03-26T06:56:13;8.80;99.90
46608;DHT22;32330;51.936;7.184;2023-03-26T06:59:06;8.80;99.90
46608;DHT22;32330;51.936;7.184;2023-03-26T07:01:52;8.80;99.90
46608;DHT22;32330;51.936;7.184;2023-03-26T07:04:38;8.90;99.90
46608;DHT22;32330;51.936;7.184;2023-03-26T07:07:23;8.90;99.90
46608;DHT22;32330;51.936;7.184;2023-03-26T07:10:10;8.90;99.90
46608;DHT22;32330;51.936;7.184;2023-03-26T07:12:50;9.00;99.90
46608;DHT22;32330;51.936;7.184;2023-03-26T07:15:41;9.00;99.90
46608;DHT22;32330;51.936;7.184;2023-03-26T07:18:27;9.00;99.90
46608;DHT22;32330;51.936;7.184;2023-03-26T07:20:55;9.00;99.90
46608;DHT22;32330;51.936;7.184;2023-03-26T07:23:24;9.00;99.90
46608;DHT22;32330;51.936;7.184;2023-03-26T07:26:25;9.10;99.90
46608;DHT22;32330;51.936;7.184;2023-03-26T07:29:17;9.10;99.90
46608;DHT22;32330;51.936;7.184;2023-03-26T07:32:08;9.10;99.90
46608;DHT22;32330;51.936;7.184;2023-03-26T07:34:50;9.10;99.90
46608;DHT22;32330;51.936;7.184;2023-03-26T07:37:31;9.10;99.90
46608;DHT22;32330;51.936;7.184;2023-03-26T07:40:40;9.10;99.90
46608;DHT22;32330;51.936;7.184;2023-03-26T07:43:45;9.10;99.90
46608;DHT22;32330;51.936;7.184;2023-03-26T07:46:37;9.10;99.90
46608;DHT22;32330;51.936;7.184;2023-03-26T07:49:32;9.10;99.90
46608;DHT22;32330;51.936;7.184;2023-03-26T07:52:22;9.20;99.90
46608;DHT22;32330;51.936;7.184;2023-03-26T07:55:19;9.20;99.90
46608;DHT22;32330;51.936;7.184;2023-03-26T07:58:18;9.20;99.90
46608;DHT22;32330;51.936;7.184;2023-03-26T08:01:17;9.30;99.90
46608;DHT22;32330;51.936;7.184;2023-03-26T08:04:01;9.40;99.90
46608;DHT22;32330;51.936;7.184;2023-03-26T08:07:12;9.40;99.90
46608;DHT22;32330;51.936;7.184;2023-03-26T08:10:07;9.40;99.90
46608;DHT22;32330;51.936;7.184;2023-03-26T08:13:00;9.50;99.90
46608;DHT22;32330;51.936;7.184;2023-03-26T08:15:32;9.60;99.90
46608;DHT22;32330;51.936;7.184;2023-03-26T08:18:12;9.60;99.90
46608;DHT22;32330;51.936;7.184;2023-03-26T08:20:45;9.60;99.90
46608;DHT22;32330;51.936;7.184;2023-03-26T08:23:18;9.50;99.90
46608;DHT22;32330;51.936;7.184;2023-03-26T08:25:56;9.50;99.90
46608;DHT22;32330;51.936;7.184;2023-03-26T08:28:44;9.60;99.90
46608;DHT22;32330;51.936;7.184;2023-03-26T08:31:16;9.50;99.90
46608;DHT22;32330;51.936;7.184;2023-03-26T08:33:44;9.60;99.90
46608;DHT22;32330;51.936;7.184;2023-03-26T08:36:12;9.60;99.90
46608;DHT22;32330;51.936;7.184;2023-03-26T08:38:39;9.70;99.90
46608;DHT22;32330;51.936;7.184;2023-03-26T08:44:50;9.70;99.90
46608;DHT22;32330;51.936;7.184;2023-03-26T08:50:42;9.80;99.90
46608;DHT22;32330;51.936;7.184;2023-03-26T08:53:32;9.80;99.90
46608;DHT22;32330;51.936;7.184;2023-03-26T08:56:18;9.80;99.90
46608;DHT22;32330;51.936;7.184;2023-03-26T08:59:18;9.80;99.90
46608;DHT22;32330;51.936;7.184;2023-03-26T09:02:20;9.80;99.90
46608;DHT22;32330;51.936;7.184;2023-03-26T09:08:16;9.80;99.90
46608;DHT22;32330;51.936;7.184;2023-03-26T09:10:56;9.80;99.90
46608;DHT22;32330;51.936;7.184;2023-03-26T09:13:46;9.80;99.90
46608;DHT22;32330;51.936;7.184;2023-03-26T09:23:11;9.90;99.90
46608;DHT22;32330;51.936;7.184;2023-03-26T09:35:37;9.90;99.90
46608;DHT22;32330;51.936;7.184;2023-03-26T09:38:39;9.90;99.90
46608;DHT22;32330;51.936;7.184;2023-03-26T09:41:13;10.00;99.90
46608;DHT22;32330;51.936;7.184;2023-03-26T09:47:08;9.90;99.90
46608;DHT22;32330;51.936;7.184;2023-03-26T09:49:48;9.90;99.90
46608;DHT22;32330;51.936;7.184;2023-03-26T09:52:35;9.90;99.90
46608;DHT22;32330;51.936;7.184;2023-03-26T09:55:29;9.90;99.90
46608;DHT22;32330;51.936;7.184;2023-03-26T09:58:31;9.90;99.90
46608;DHT22;32330;51.936;7.184;2023-03-26T10:01:04;9.90;99.90
46608;DHT22;32330;51.936;7.184;2023-03-26T10:03:40;9.80;99.90
46608;DHT22;32330;51.936;7.184;2023-03-26T10:06:17;9.90;99.90
46608;DHT22;32330;51.936;7.184;2023-03-26T10:12:05;9.90;99.90
46608;DHT22;32330;51.936;7.184;2023-03-26T10:14:41;9.90;99.90
46608;DHT22;32330;51.936;7.184;2023-03-26T10:17:23;9.80;99.90
46608;DHT22;32330;51.936;7.184;2023-03-26T10:20:02;9.80;99.90
46608;DHT22;32330;51.936;7.184;2023-03-26T10:22:46;9.90;99.90
46608;DHT22;32330;51.936;7.184;2023-03-26T10:25:25;9.80;99.90
46608;DHT22;32330;51.936;7.184;2023-03-26T10:28:05;9.90;99.90
46608;DHT22;32330;51.936;7.184;2023-03-26T10:30:51;9.90;99.90
46608;DHT22;32330;51.936;7.184;2023-03-26T10:33:29;9.90;99.90
46608;DHT22;32330;51.936;7.184;2023-03-26T10:36:22;10.00;99.90
46608;DHT22;32330;51.936;7.184;2023-03-26T10:39:19;10.00;99.90
46608;DHT22;32330;51.936;7.184;2023-03-26T10:41:55;10.10;99.90
46608;DHT22;32330;51.936;7.184;2023-03-26T10:44:52;10.10;99.90
46608;DHT22;32330;51.936;7.184;2023-03-26T10:47:46;10.20;99.90
46608;DHT22;32330;51.936;7.184;2023-03-26T10:50:37;10.30;99.90
46608;DHT22;32330;51.936;7.184;2023-03-26T10:53:24;10.30;99.90
46608;DHT22;32330;51.936;7.184;2023-03-26T10:55:54;10.30;99.90
46608;DHT22;32330;51.936;7.184;2023-03-26T10:58:24;10.50;99.90
46608;DHT22;32330;51.936;7.184;2023-03-26T11:00:55;10.30;99.90
46608;DHT22;32330;51.936;7.184;2023-03-26T11:03:36;10.40;99.90
46608;DHT22;32330;51.936;7.184;2023-03-26T11:06:12;10.30;99.90
46608;DHT22;32330;51.936;7.184;2023-03-26T11:08:50;10.10;99.90
46608;DHT22;32330;51.936;7.184;2023-03-26T11:11:23;10.10;99.90
46608;DHT22;32330;51.936;7.184;2023-03-26T11:13:59;10.10;99.90
46608;DHT22;32330;51.936;7.184;2023-03-26T11:16:35;10.20;99.90
46608;DHT22;32330;51.936;7.184;2023-03-26T11:19:13;10.20;99.90
46608;DHT22;32330;51.936;7.184;2023-03-26T11:21:46;10.10;99.90
46608;DHT22;32330;51.936;7.184;2023-03-26T11:24:36;10.10;99.90
46608;DHT22;32330;51.936;7.184;2023-03-26T11:27:10;10.20;99.90
46608;DHT22;32330;51.936;7.184;2023-03-26T11:29:45;10.40;99.90
46608;DHT22;32330;51.936;7.184;2023-03-26T11:32:18;10.40;99.90
46608;DHT22;32330;51.936;7.184;2023-03-26T11:34:55;10.30;99.90
46608;DHT22;32330;51.936;7.184;2023-03-26T11:37:29;10.30;99.90
46608;DHT22;32330;51.936;7.184;2023-03-26T11:40:02;10.40;99.90
46608;DHT22;32330;51.936;7.184;2023-03-26T11:42:33;10.50;99.90
46608;DHT22;32330;51.936;7.184;2023-03-26T11:45:02;10.60;99.90
46608;DHT22;32330;51.936;7.184;2023-03-26T11:47:37;10.60;99.90
46608;DHT22;32330;51.936;7.184;2023-03-26T11:50:09;10.50;99.90
46608;DHT22;32330;51.936;7.184;2023-03-26T11:52:41;10.50;99.90
46608;DHT22;32330;51.936;7.184;2023-03-26T11:55:11;10.30;99.90
46608;DHT22;32330;51.936;7.184;2023-03-26T11:57:39;10.30;99.90
46608;DHT22;32330;51.936;7.184;2023-03-26T12:00:12;10.30;99.90
46608;DHT22;32330;51.936;7.184;2023-03-26T12:02:43;10.30;99.90
46608;DHT22;32330;51.936;7.184;2023-03-26T12:05:16;10.40;99.90
46608;DHT22;32330;51.936;7.184;2023-03-26T12:07:52;10.40;99.90
46608;DHT22;32330;51.936;7.184;2023-03-26T12:10:32;10.50;99.90
46608;DHT22;32330;51.936;7.184;2023-03-26T12:13:04;10.50;99.90
46608;DHT22;32330;51.936;7.184;2023-03-26T12:15:32;10.50;99.90
46608;DHT22;32330;51.936;7.184;2023-03-26T12:18:18;10.50;99.90
46608;DHT22;32330;51.936;7.184;2023-03-26T12:20:47;10.50;99.90
46608;DHT22;32330;51.936;7.184;2023-03-26T12:23:32;10.50;99.90
46608;DHT22;32330;51.936;7.184;2023-03-26T12:26:09;10.50;99.90
46608;DHT22;32330;51.936;7.184;2023-03-26T12:28:43;10.50;99.90
46608;DHT22;32330;51.936;7.184;2023-03-26T12:31:48;10.50;99.90
46608;DHT22;32330;51.936;7.184;2023-03-26T12:38:21;10.60;99.90
46608;DHT22;32330;51.936;7.184;2023-03-26T12:41:02;10.50;99.90
46608;DHT22;32330;51.936;7.184;2023-03-26T12:43:36;10.50;99.90
46608;DHT22;32330;51.936;7.184;2023-03-26T12:46:19;10.40;99.90
46608;DHT22;32330;51.936;7.184;2023-03-26T12:48:46;10.50;99.90
46608;DHT22;32330;51.936;7.184;2023-03-26T12:51:21;10.50;99.90
46608;DHT22;32330;51.936;7.184;2023-03-26T12:54:11;10.40;99.90
46608;DHT22;32330;51.936;7.184;2023-03-26T12:56:46;10.50;99.90
46608;DHT22;32330;51.936;7.184;2023-03-26T12:59:26;10.40;99.90
46608;DHT22;32330;51.936;7.184;2023-03-26T13:02:04;10.40;99.90
46608;DHT22;32330;51.936;7.184;2023-03-26T13:04:46;10.50;99.90
46608;DHT22;32330;51.936;7.184;2023-03-26T13:07:20;10.60;99.90
46608;DHT22;32330;51.936;7.184;2023-03-26T13:10:00;10.50;99.90
46608;DHT22;32330;51.936;7.184;2023-03-26T13:12:38;10.60;99.90
46608;DHT22;32330;51.936;7.184;2023-03-26T13:15:21;10.60;99.90
46608;DHT22;32330;51.936;7.184;2023-03-26T13:17:59;10.60;99.90
46608;DHT22;32330;51.936;7.184;2023-03-26T13:20:37;10.50;99.90
46608;DHT22;32330;51.936;7.184;2023-03-26T13:23:16;10.40;99.90
46608;DHT22;32330;51.936;7.184;2023-03-26T13:25:54;10.30;99.90
46608;DHT22;32330;51.936;7.184;2023-03-26T13:28:31;10.40;99.90
46608;DHT22;32330;51.936;7.184;2023-03-26T13:31:06;10.30;99.90
46608;DHT22;32330;51.936;7.184;2023-03-26T13:33:45;10.30;99.90
46608;DHT22;32330;51.936;7.184;2023-03-26T13:36:20;10.20;99.90
46608;DHT22;32330;51.936;7.184;2023-03-26T13:39:08;10.10;99.90
46608;DHT22;32330;51.936;7.184;2023-03-26T13:41:50;10.20;99.90
46608;DHT22;32330;51.936;7.184;2023-03-26T13:44:28;10.10;99.90
46608;DHT22;32330;51.936;7.184;2023-03-26T13:46:59;10.20;99.90
46608;DHT22;32330;51.936;7.184;2023-03-26T13:49:33;10.20;99.90
46608;DHT22;32330;51.936;7.184;2023-03-26T13:52:07;10.30;99.90
46608;DHT22;32330;51.936;7.184;2023-03-26T13:54:40;10.20;99.90
46608;DHT22;32330;51.936;7.184;2023-03-26T13:57:15;10.20;99.90
46608;DHT22;32330;51.936;7.184;2023-03-26T13:59:47;10.10;99.90
46608;DHT22;32330;51.936;7.184;2023-03-26T14:02:22;10.30;99.90
46608;DHT22;32330;51.936;7.184;2023-03-26T14:04:54;10.30;99.90
46608;DHT22;32330;51.936;7.184;2023-03-26T14:07:24;10.30;99.90
46608;DHT22;32330;51.936;7.184;2023-03-26T14:09:53;10.10;99.90
46608;DHT22;32330;51.936;7.184;2023-03-26T14:12:39;10.10;99.90
46608;DHT22;32330;51.936;7.184;2023-03-26T14:15:14;10.00;99.90
46608;DHT22;32330;51.936;7.184;2023-03-26T14:17:47;10.00;99.90
46608;DHT22;32330;51.936;7.184;2023-03-26T14:20:53;9.70;99.90
46608;DHT22;32330;51.936;7.184;2023-03-26T14:23:33;9.50;99.90
46608;DHT22;32330;51.936;7.184;2023-03-26T14:26:13;9.60;99.90
46608;DHT22;32330;51.936;7.184;2023-03-26T14:29:13;9.40;99.90
46608;DHT22;32330;51.936;7.184;2023-03-26T14:31:57;9.40;99.90
46608;DHT22;32330;51.936;7.184;2023-03-26T14:34:38;9.40;99.90
46608;DHT22;32330;51.936;7.184;2023-03-26T14:37:49;9.40;99.90
46608;DHT22;32330;51.936;7.184;2023-03-26T14:40:29;9.50;99.90
46608;DHT22;32330;51.936;7.184;2023-03-26T14:43:28;9.40;99.90
46608;DHT22;32330;51.936;7.184;2023-03-26T14:46:21;9.40;99.90
46608;DHT22;32330;51.936;7.184;2023-03-26T14:49:19;9.50;99.90
46608;DHT22;32330;51.936;7.184;2023-03-26T14:52:00;9.40;99.90
46608;DHT22;32330;51.936;7.184;2023-03-26T14:54:30;9.40;99.90
46608;DHT22;32330;51.936;7.184;2023-03-26T14:57:26;9.30;99.90
46608;DHT22;32330;51.936;7.184;2023-03-26T15:03:42;9.40;99.90
46608;DHT22;32330;51.936;7.184;2023-03-26T15:12:35;9.30;99.90
46608;DHT22;32330;51.936;7.184;2023-03-26T15:15:41;9.40;99.90
46608;DHT22;32330;51.936;7.184;2023-03-26T15:18:39;9.30;99.90
46608;DHT22;32330;51.936;7.184;2023-03-26T15:24:46;9.30;99.90
46608;DHT22;32330;51.936;7.184;2023-03-26T15:27:28;9.30;99.90
46608;DHT22;32330;51.936;7.184;2023-03-26T15:30:25;9.40;99.90
46608;DHT22;32330;51.936;7.184;2023-03-26T15:33:31;9.40;99.90
46608;DHT22;32330;51.936;7.184;2023-03-26T15:39:39;9.40;99.90
46608;DHT22;32330;51.936;7.184;2023-03-26T15:42:12;9.30;99.90
46608;DHT22;32330;51.936;7.184;2023-03-26T15:44:50;9.30;99.90
46608;DHT22;32330;51.936;7.184;2023-03-26T15:47:34;9.40;99.90
46608;DHT22;32330;51.936;7.184;2023-03-26T15:50:17;9.30;99.90
46608;DHT22;32330;51.936;7.184;2023-03-26T15:52:52;9.40;99.90
46608;DHT22;32330;51.936;7.184;2023-03-26T15:55:29;9.30;99.60
46608;DHT22;32330;51.936;7.184;2023-03-26T15:58:07;9.20;97.80
46608;DHT22;32330;51.936;7.184;2023-03-26T16:00:42;9.20;99.90
46608;DHT22;32330;51.936;7.184;2023-03-26T16:03:23;9.20;99.90
46608;DHT22;32330;51.936;7.184;2023-03-26T16:06:27;9.10;81.40
46608;DHT22;32330;51.936;7.184;2023-03-26T16:09:43;9.10;77.90
46608;DHT22;32330;51.936;7.184;2023-03-26T16:12:35;9.10;80.00
46608;DHT22;32330;51.936;7.184;2023-03-26T16:15:24;9.10;70.70
46608;DHT22;32330;51.936;7.184;2023-03-26T16:18:16;9.10;67.90
46608;DHT22;32330;51.936;7.184;2023-03-26T16:20:48;9.00;46.00
46608;DHT22;32330;51.936;7.184;2023-03-26T16:23:24;8.90;44.20
46608;DHT22;32330;51.936;7.184;2023-03-26T16:25:58;8.80;38.30
46608;DHT22;32330;51.936;7.184;2023-03-26T16:28:39;8.70;40.20
46608;DHT22;32330;51.936;7.184;2023-03-26T16:31:25;8.70;39.70
46608;DHT22;32330;51.936;7.184;2023-03-26T16:34:24;8.60;42.10
46608;DHT22;32330;51.936;7.184;2023-03-26T16:36:52;8.60;47.10
46608;DHT22;32330;51.936;7.184;2023-03-26T16:39:23;8.60;43.00
46608;DHT22;32330;51.936;7.184;2023-03-26T16:41:54;8.60;49.10
46608;DHT22;32330;51.936;7.184;2023-03-26T16:44:30;8.60;46.70
46608;DHT22;32330;51.936;7.184;2023-03-26T16:47:07;8.60;45.50
46608;DHT22;32330;51.936;7.184;2023-03-26T16:49:51;8.60;51.50
46608;DHT22;32330;51.936;7.184;2023-03-26T16:52:31;8.60;42.60
46608;DHT22;32330;51.936;7.184;2023-03-26T16:55:02;8.60;42.60
46608;DHT22;32330;51.936;7.184;2023-03-26T16:57:36;8.40;18.70
46608;DHT22;32330;51.936;7.184;2023-03-26T17:00:35;8.50;30.60
46608;DHT22;32330;51.936;7.184;2023-03-26T17:03:40;8.40;31.20
46608;DHT22;32330;51.936;7.184;2023-03-26T17:06:31;8.30;2.20
46608;DHT22;32330;51.936;7.184;2023-03-26T17:09:18;8.30;13.70
46608;DHT22;32330;51.936;7.184;2023-03-26T17:11:57;8.20;3.20
46608;DHT22;32330;51.936;7.184;2023-03-26T17:14:41;8.20;1.10
46608;DHT22;32330;51.936;7.184;2023-03-26T17:17:42;8.10;1.00
46608;DHT22;32330;51.936;7.184;2023-03-26T17:20:23;8.00;1.00
46608;DHT22;32330;51.936;7.184;2023-03-26T17:23:04;8.00;7.80
46608;DHT22;32330;51.936;7.184;2023-03-26T17:25:44;7.90;1.00
46608;DHT22;32330;51.936;7.184;2023-03-26T17:28:32;7.90;1.00
46608;DHT22;32330;51.936;7.184;2023-03-26T17:31:06;7.90;6.50
46608;DHT22;32330;51.936;7.184;2023-03-26T17:33:41;7.80;1.00
46608;DHT22;32330;51.936;7.184;2023-03-26T17:36:27;7.70;1.00
46608;DHT22;32330;51.936;7.184;2023-03-26T17:39:04;7.80;1.00
46608;DHT22;32330;51.936;7.184;2023-03-26T17:41:54;7.70;1.00
46608;DHT22;32330;51.936;7.184;2023-03-26T17:44:42;7.70;3.30
46608;DHT22;32330;51.936;7.184;2023-03-26T17:47:20;7.80;1.00
46608;DHT22;32330;51.936;7.184;2023-03-26T17:49:54;7.70;1.00